Time;durP1;ratioP1;P1;durP2;ratioP2;P2;SDS_P1;SDS_P2;PMS_P1;PMS_P2;Temp;Humidity;BMP_temperature;BMP_pressure;BME280_temperature;BME280_humidity;BME280_pressure;Samples;Min_cycle;Max_cycle;Signal;HPM_P1;HPM_P2
2022/09/27 00:01:56;;;;;;;10.23;9.13;;;;;;;17.74;100.00;99223.81;5073113;28;20043;-72
2022/09/27 00:04:21;;;;;;;12.30;8.32;;;;;;;17.38;100.00;99177.47;5072399;28;20040;-73
2022/09/27 00:06:47;;;;;;;9.60;8.68;;;;;;;17.70;100.00;99214.66;5071987;28;20028;-72
2022/09/27 00:09:12;;;;;;;10.20;8.60;;;;;;;17.83;100.00;99244.56;5071849;28;20036;-72
2022/09/27 00:11:41;;;;;;;8.57;7.78;;;;;;;17.62;100.00;99204.91;5072350;28;20117;-73
2022/09/27 00:14:10;;;;;;;10.45;8.35;;;;;;;17.70;100.00;99232.66;5073556;28;20467;-72
2022/09/27 00:16:37;;;;;;;9.30;8.40;;;;;;;17.64;100.00;99179.91;5073043;28;20052;-72
2022/09/27 00:19:24;;;;;;;11.20;7.95;;;;;;;17.09;100.00;99167.41;5073580;28;20111;-73
2022/09/27 00:21:49;;;;;;;10.15;8.40;;;;;;;17.22;100.00;99163.09;5071911;28;20095;-72
2022/09/27 00:24:19;;;;;;;8.77;7.85;;;;;;;17.56;100.00;99218.19;5072542;28;20056;-72
2022/09/27 00:26:45;;;;;;;8.85;8.00;;;;;;;17.16;100.00;99163.53;5072526;28;20032;-72
2022/09/27 00:29:12;;;;;;;9.20;8.30;;;;;;;17.57;100.00;99204.38;5071833;28;20402;-72
2022/09/27 00:31:38;;;;;;;9.63;7.97;;;;;;;17.48;100.00;99194.72;5072125;28;20020;-72
2022/09/27 00:34:05;;;;;;;9.10;8.02;;;;;;;17.32;100.00;99153.84;5072580;28;20032;-72
2022/09/27 00:36:32;;;;;;;10.27;8.38;;;;;;;17.02;100.00;99089.16;5072486;28;20029;-72
2022/09/27 00:38:58;;;;;;;9.52;8.60;;;;;;;17.49;100.00;99170.69;5073114;28;20131;-72
2022/09/27 00:41:31;;;;;;;10.30;9.25;;;;;;;16.86;100.00;99083.41;5071598;28;20032;-72
2022/09/27 00:44:00;;;;;;;10.43;9.35;;;;;;;17.04;100.00;99127.56;5072966;28;20549;-72
2022/09/27 00:46:32;;;;;;;11.13;9.57;;;;;;;17.78;100.00;99208.06;5071340;28;20585;-71
2022/09/27 00:49:12;;;;;;;11.80;9.98;;;;;;;17.20;100.00;99131.56;5072313;28;20028;-72
2022/09/27 00:51:39;;;;;;;10.23;9.32;;;;;;;17.31;100.00;99148.81;5069611;28;20132;-72
2022/09/27 00:54:08;;;;;;;9.93;9.02;;;;;;;17.60;100.00;99152.78;5072816;28;20048;-73
2022/09/27 00:56:35;;;;;;;11.23;9.00;;;;;;;17.86;100.00;99187.78;5071789;28;20422;-73
2022/09/27 00:59:12;;;;;;;10.02;8.88;;;;;;;17.61;100.00;99133.03;5072731;28;20056;-72
2022/09/27 01:01:38;;;;;;;10.63;8.93;;;;;;;17.53;100.00;99154.13;5072336;28;20024;-74
2022/09/27 01:04:09;;;;;;;11.85;9.23;;;;;;;17.30;100.00;99085.50;5072192;28;20497;-73
2022/09/27 01:06:36;;;;;;;12.45;10.43;;;;;;;18.00;100.00;99191.94;5072351;28;20044;-72
2022/09/27 01:09:06;;;;;;;12.23;10.18;;;;;;;17.76;100.00;99188.53;5072505;28;20157;-73
2022/09/27 01:11:52;;;;;;;11.52;10.43;;;;;;;17.78;100.00;99184.91;5068952;28;20032;-72
2022/09/27 01:14:33;;;;;;;11.48;10.10;;;;;;;17.67;100.00;99153.19;5072204;28;20028;-72
2022/09/27 01:17:23;;;;;;;13.43;10.07;;;;;;;17.94;100.00;99184.66;5081005;28;20103;-72
2022/09/27 01:20:30;;;;;;;11.07;9.98;;;;;;;17.51;100.00;99114.84;5069678;28;20032;-73
2022/09/27 01:23:14;;;;;;;10.45;9.38;;;;;;;17.96;100.00;99181.06;5059067;28;20453;-74
2022/09/27 01:25:57;;;;;;;10.18;9.15;;;;;;;17.86;100.00;99185.22;5071127;28;20511;-73
2022/09/27 01:28:41;;;;;;;11.23;9.70;;;;;;;17.93;100.00;99188.97;5065931;28;20024;-74
2022/09/27 01:31:34;;;;;;;10.38;9.38;;;;;;;17.72;100.00;99187.91;5071433;28;20017;-72
2022/09/27 01:34:07;;;;;;;13.02;10.00;;;;;;;17.75;100.00;99189.44;5072061;28;20024;-71
2022/09/27 01:36:38;;;;;;;11.25;10.07;;;;;;;17.61;100.00;99192.97;5070961;28;20016;-72
2022/09/27 01:39:25;;;;;;;13.40;10.48;;;;;;;17.58;100.00;99182.09;5069117;28;20048;-72
2022/09/27 01:42:10;;;;;;;12.82;11.07;;;;;;;17.46;100.00;99177.75;5068871;28;20028;-72
2022/09/27 01:44:47;;;;;;;11.90;10.70;;;;;;;17.18;100.00;99118.00;5063704;28;20166;-72
2022/09/27 01:47:18;;;;;;;11.52;10.52;;;;;;;17.43;100.00;99153.09;5064539;28;20503;-72
2022/09/27 01:49:43;;;;;;;11.82;10.63;;;;;;;17.23;100.00;99159.59;5087274;28;20025;-72
2022/09/27 01:52:14;;;;;;;14.98;11.60;;;;;;;16.99;100.00;99102.22;5071631;28;20017;-71
2022/09/27 01:54:44;;;;;;;13.38;11.60;;;;;;;17.05;100.00;99083.81;5066843;28;20039;-73
2022/09/27 01:57:12;;;;;;;13.23;11.93;;;;;;;16.92;100.00;99095.84;5071748;28;20123;-72
2022/09/27 01:59:49;;;;;;;12.82;11.45;;;;;;;17.19;100.00;99117.06;5071437;28;20025;-73
2022/09/27 02:02:17;;;;;;;12.85;11.55;;;;;;;17.21;100.00;99119.53;5066904;28;20025;-73
2022/09/27 02:04:47;;;;;;;13.15;11.85;;;;;;;16.83;100.00;99069.97;5070018;28;20421;-71
2022/09/27 02:07:24;;;;;;;12.13;11.02;;;;;;;17.02;100.00;99108.88;5070585;28;20036;-71
2022/09/27 02:10:17;;;;;;;12.88;11.57;;;;;;;16.66;100.00;99063.41;5065273;28;20117;-71
2022/09/27 02:12:59;;;;;;;12.85;11.45;;;;;;;16.80;100.00;99049.63;5058709;28;20208;-72
2022/09/27 02:15:26;;;;;;;12.00;10.88;;;;;;;17.05;100.00;99098.41;5070010;28;20509;-73
2022/09/27 02:17:59;;;;;;;12.48;11.30;;;;;;;17.19;100.00;99116.25;5070554;28;20609;-74
2022/09/27 02:20:50;;;;;;;12.80;11.52;;;;;;;16.67;100.00;99054.78;5070963;28;20032;-73
2022/09/27 02:23:26;;;;;;;14.18;12.80;;;;;;;16.84;100.00;99056.19;5069129;28;20020;-73
2022/09/27 02:26:03;;;;;;;14.45;11.73;;;;;;;16.74;100.00;99050.06;5069753;28;20505;-73
2022/09/27 02:28:50;;;;;;;13.25;11.73;;;;;;;16.70;100.00;99028.09;5070482;28;20089;-73
2022/09/27 02:31:16;;;;;;;13.00;11.40;;;;;;;16.85;100.00;99053.53;5070619;28;20042;-73
2022/09/27 02:33:46;;;;;;;12.82;11.63;;;;;;;17.29;100.00;99110.34;5070948;28;20024;-73
2022/09/27 02:36:12;;;;;;;13.07;11.82;;;;;;;16.64;100.00;99034.44;5069919;28;20029;-72
2022/09/27 02:38:38;;;;;;;13.43;12.13;;;;;;;16.66;100.00;99042.06;5070441;28;20391;-73
2022/09/27 02:41:03;;;;;;;13.00;11.80;;;;;;;16.92;100.00;99085.56;5071419;28;20947;-72
2022/09/27 02:43:32;;;;;;;12.50;11.35;;;;;;;17.13;100.00;99084.09;5064759;28;20116;-73
2022/09/27 02:46:03;;;;;;;12.35;11.20;;;;;;;17.09;100.00;99098.06;5069533;28;20091;-71
2022/09/27 02:48:50;;;;;;;13.90;12.48;;;;;;;16.98;100.00;99095.41;5067048;28;20025;-72
2022/09/27 02:51:30;;;;;;;13.55;12.25;;;;;;;16.43;100.00;98980.25;5075163;28;20046;-71
2022/09/27 02:54:15;;;;;;;12.93;11.77;;;;;;;17.02;100.00;99096.84;5069680;28;20478;-70
2022/09/27 02:56:56;;;;;;;13.35;12.05;;;;;;;16.93;100.00;99087.22;5067292;28;20031;-71
2022/09/27 02:59:40;;;;;;;15.15;12.13;;;;;;;16.32;100.00;98972.44;5068111;28;20024;-71
2022/09/27 03:02:22;;;;;;;15.38;11.63;;;;;;;17.01;100.00;99069.53;5084752;28;20039;-73
2022/09/27 03:05:04;;;;;;;12.88;11.52;;;;;;;17.01;100.00;99028.47;5069728;28;20399;-69
2022/09/27 03:07:29;;;;;;;;;;;;;;;17.35;100.00;99091.16;5070686;28;20043;-70
2022/09/27 03:09:55;;;;;;;13.77;12.38;;;;;;;17.08;100.00;99086.16;5068247;28;19912;-69
2022/09/27 03:12:24;;;;;;;14.00;12.48;;;;;;;16.99;100.00;99080.84;5073952;28;20028;-69
2022/09/27 03:14:56;;;;;;;14.23;11.48;;;;;;;17.00;100.00;99037.06;5069254;28;20102;-70
2022/09/27 03:17:21;;;;;;;12.93;11.70;;;;;;;17.15;100.00;99092.50;5069599;28;20037;-70
2022/09/27 03:19:47;;;;;;;15.27;11.52;;;;;;;17.17;100.00;99092.41;5069888;28;20515;-70
2022/09/27 03:22:14;;;;;;;15.25;11.88;;;;;;;17.12;100.00;99108.16;5070167;28;20445;-69
2022/09/27 03:24:39;;;;;;;12.63;11.38;;;;;;;17.13;100.00;99091.00;5070471;28;20071;-71
2022/09/27 03:27:05;;;;;;;12.50;11.45;;;;;;;16.83;100.00;99027.16;5069889;28;20471;-72
2022/09/27 03:29:31;;;;;;;12.75;11.55;;;;;;;16.98;100.00;99074.03;5070497;28;20115;-74
2022/09/27 03:31:57;;;;;;;12.10;10.95;;;;;;;16.55;100.00;99013.72;5068357;28;20021;-72
2022/09/27 03:34:22;;;;;;;12.15;10.95;;;;;;;16.97;100.00;99078.38;5070022;28;20037;-73
2022/09/27 03:36:48;;;;;;;13.15;11.02;;;;;;;16.86;100.00;99052.59;5070612;28;20028;-73
2022/09/27 03:39:13;;;;;;;12.10;10.90;;;;;;;16.87;100.00;99054.25;5068851;28;20033;-73
2022/09/27 03:41:40;;;;;;;11.75;10.50;;;;;;;17.10;100.00;99075.78;5070266;28;20056;-72
2022/09/27 03:44:05;;;;;;;11.50;10.40;;;;;;;16.63;100.00;99012.28;5086103;28;20093;-74
2022/09/27 03:46:31;;;;;;;11.65;10.48;;;;;;;16.83;100.00;99023.75;5070549;28;20032;-73
2022/09/27 03:48:56;;;;;;;11.00;9.82;;;;;;;17.33;100.00;99055.25;5068918;28;20032;-74
2022/09/27 03:51:22;;;;;;;11.07;9.40;;;;;;;17.02;100.00;98998.44;5070838;28;20115;-75
2022/09/27 03:53:48;;;;;;;11.38;10.27;;;;;;;16.73;100.00;99000.47;5071216;28;20078;-75
2022/09/27 03:56:14;;;;;;;11.75;9.70;;;;;;;17.15;100.00;99055.75;5069641;28;20028;-74
2022/09/27 03:58:39;;;;;;;11.90;9.70;;;;;;;17.09;100.00;99056.97;5070294;28;20028;-73
2022/09/27 04:01:05;;;;;;;10.80;9.80;;;;;;;16.95;100.00;99041.72;5070539;28;20037;-73
2022/09/27 04:03:30;;;;;;;12.90;9.93;;;;;;;16.91;100.00;99017.19;5069623;28;20044;-74
2022/09/27 04:05:55;;;;;;;11.35;9.50;;;;;;;17.04;100.00;99041.06;5068579;28;20024;-73
2022/09/27 04:08:21;;;;;;;10.98;9.88;;;;;;;17.06;100.00;99033.25;5069911;28;20410;-73
2022/09/27 04:10:47;;;;;;;10.98;9.93;;;;;;;16.79;100.00;99012.88;5068725;28;20035;-74
2022/09/27 04:13:13;;;;;;;12.77;9.82;;;;;;;17.17;100.00;99057.25;5070189;28;20040;-73
2022/09/27 04:15:38;;;;;;;11.88;10.13;;;;;;;16.84;100.00;99002.28;5075536;28;20028;-72
2022/09/27 04:18:05;;;;;;;11.98;9.93;;;;;;;16.92;100.00;99005.13;5088772;28;20214;-74
2022/09/27 04:20:31;;;;;;;11.60;10.18;;;;;;;16.54;100.00;98976.19;5105833;28;20114;-73
2022/09/27 04:22:56;;;;;;;11.65;10.30;;;;;;;16.84;100.00;99015.94;5090522;28;20036;-74
2022/09/27 04:25:22;;;;;;;11.32;9.98;;;;;;;16.55;100.00;98977.81;5068930;28;20599;-73
2022/09/27 04:27:50;;;;;;;10.93;9.80;;;;;;;17.12;100.00;99049.06;5069491;28;20035;-73
2022/09/27 04:30:16;;;;;;;10.65;9.57;;;;;;;16.60;100.00;98974.00;5069310;28;20577;-72
2022/09/27 04:32:43;;;;;;;10.80;9.68;;;;;;;17.03;100.00;99043.75;5071922;28;20111;-72
2022/09/27 04:37:53;;;;;;;14.93;9.55;;;;;;;17.29;100.00;98993.94;5073335;28;20596;-74
2022/09/27 04:40:21;;;;;;;12.75;10.20;;;;;;;17.29;100.00;99037.63;5071164;28;20115;-74
2022/09/27 04:42:46;;;;;;;12.70;10.32;;;;;;;17.23;100.00;99044.00;5092285;28;20054;-76
2022/09/27 04:45:12;;;;;;;11.38;10.18;;;;;;;17.11;100.00;98983.19;5094109;28;20089;-73
2022/09/27 04:47:45;;;;;;;13.60;10.27;;;;;;;16.93;100.00;98973.41;5093084;28;20032;-73
2022/09/27 04:50:12;;;;;;;11.52;10.32;;;;;;;17.06;100.00;98958.78;5109395;28;20482;-74
2022/09/27 04:52:37;;;;;;;13.68;10.73;;;;;;;17.44;100.00;99022.84;5093615;28;20051;-75
2022/09/27 04:55:04;;;;;;;12.57;10.50;;;;;;;16.90;100.00;98938.50;5091873;28;20120;-75
2022/09/27 04:57:29;;;;;;;12.38;9.65;;;;;;;17.26;100.00;98983.88;5091554;28;20391;-75
2022/09/27 04:59:55;;;;;;;11.75;10.50;;;;;;;17.66;100.00;99051.25;5092815;28;20038;-76
2022/09/27 05:02:20;;;;;;;11.80;10.00;;;;;;;17.65;100.00;99039.34;5107944;28;20031;-75
2022/09/27 05:04:45;;;;;;;11.73;10.23;;;;;;;17.25;100.00;98975.34;5092205;28;20558;-75
2022/09/27 05:07:11;;;;;;;12.77;10.20;;;;;;;17.58;100.00;99015.00;5092223;28;20028;-75
2022/09/27 05:09:36;;;;;;;10.70;9.73;;;;;;;17.42;100.00;99027.28;5092925;28;20061;-73
2022/09/27 05:12:06;;;;;;;10.75;9.68;;;;;;;17.38;100.00;99033.56;5091976;28;20540;-73
2022/09/27 05:14:32;;;;;;;12.15;10.95;;;;;;;17.12;100.00;98961.75;5093565;28;20107;-73
2022/09/27 05:16:57;;;;;;;14.23;10.95;;;;;;;17.31;100.00;98992.09;5093147;28;20119;-73
2022/09/27 05:19:23;;;;;;;16.05;10.75;;;;;;;17.54;100.00;99023.88;5093194;28;20068;-74
2022/09/27 05:21:49;;;;;;;12.13;10.27;;;;;;;17.34;100.00;98999.56;5091963;28;20035;-77
2022/09/27 05:24:15;;;;;;;10.98;9.98;;;;;;;17.76;100.00;99032.50;5092995;28;20415;-72
2022/09/27 05:26:40;;;;;;;15.68;10.00;;;;;;;17.86;100.00;99017.22;5093029;28;20035;-74
2022/09/27 05:29:06;;;;;;;11.73;10.13;;;;;;;18.06;100.00;99039.72;5093093;28;20032;-72
2022/09/27 05:31:31;;;;;;;14.82;10.60;;;;;;;17.96;100.00;98971.91;5093092;28;20032;-73
2022/09/27 05:33:57;;;;;;;16.30;10.88;;;;;;;17.93;100.00;99001.22;5091769;28;20062;-75
2022/09/27 05:36:22;;;;;;;13.30;10.82;;;;;;;18.11;100.00;99032.47;5093305;28;20470;-74
2022/09/27 05:38:48;;;;;;;12.60;11.18;;;;;;;18.20;100.00;99049.84;5091512;28;20031;-72
2022/09/27 05:41:14;;;;;;;13.75;11.48;;;;;;;17.78;100.00;99010.06;5092979;28;20516;-74
2022/09/27 05:43:40;;;;;;;13.32;11.98;;;;;;;18.00;100.00;99046.16;5091550;28;20071;-73
2022/09/27 05:46:06;;;;;;;13.02;11.68;;;;;;;18.10;100.00;99036.81;5091654;28;20078;-74
2022/09/27 05:48:31;;;;;;;13.10;11.80;;;;;;;18.03;100.00;98996.22;5092689;28;20137;-74
2022/09/27 05:50:57;;;;;;;13.90;12.23;;;;;;;17.55;100.00;98933.78;5092814;28;20024;-72
2022/09/27 05:53:22;;;;;;;15.43;12.57;;;;;;;18.14;100.00;99021.97;5090935;28;20111;-72
2022/09/27 05:55:48;;;;;;;15.27;12.60;;;;;;;18.04;100.00;98993.53;5092621;28;20035;-72
2022/09/27 05:58:15;;;;;;;14.13;12.75;;;;;;;18.35;100.00;99034.97;5092398;28;20077;-72
2022/09/27 06:00:42;;;;;;;19.48;12.77;;;;;;;18.06;100.00;98962.56;5092518;28;20032;-73
2022/09/27 06:03:10;;;;;;;14.00;12.27;;;;;;;18.41;100.00;99030.22;5092237;28;20028;-75
2022/09/27 06:05:38;;;;;;;16.05;12.07;;;;;;;18.37;100.00;99028.78;5090900;28;20411;-72
2022/09/27 06:08:06;;;;;;;12.93;11.63;;;;;;;18.54;100.00;99019.84;5091509;28;20059;-72
2022/09/27 06:10:32;;;;;;;14.32;12.80;;;;;;;17.97;100.00;98952.94;5092058;28;20024;-72
2022/09/27 06:13:06;;;;;;;14.55;12.40;;;;;;;18.06;100.00;98947.13;5091320;28;20036;-73
2022/09/27 06:15:33;;;;;;;15.30;11.85;;;;;;;18.42;100.00;98969.25;5092387;28;20080;-73
2022/09/27 06:18:04;;;;;;;13.85;11.40;;;;;;;18.65;100.00;99009.53;5107827;28;20024;-72
2022/09/27 06:20:30;;;;;;;14.00;11.95;;;;;;;18.73;100.00;99004.63;5091589;28;20035;-72
2022/09/27 06:23:18;;;;;;;11.05;9.95;;;;;;;19.24;100.00;98995.41;5108069;28;20048;-73
2022/09/27 06:25:45;;;;;;;15.23;10.75;;;;;;;19.87;100.00;98994.59;5092641;28;20541;-73
2022/09/27 06:28:11;;;;;;;10.65;9.65;;;;;;;19.44;100.00;98971.47;5090437;28;20054;-72
2022/09/27 06:30:39;;;;;;;10.88;9.55;;;;;;;19.49;100.00;98991.72;5091744;28;20494;-76
2022/09/27 06:33:05;;;;;;;13.30;10.10;;;;;;;20.28;100.00;98973.94;5090399;28;20039;-72
2022/09/27 06:35:31;;;;;;;12.13;8.68;;;;;;;21.19;100.00;99052.25;5090475;28;20028;-73
2022/09/27 06:37:57;;;;;;;10.20;8.90;;;;;;;21.19;100.00;99043.66;5090833;28;20101;-73
2022/09/27 06:40:25;;;;;;;8.88;7.97;;;;;;;20.21;100.00;99026.22;5090655;28;20494;-73
2022/09/27 06:42:52;;;;;;;10.93;8.82;;;;;;;20.11;100.00;99023.53;5090428;28;20056;-73
2022/09/27 06:45:19;;;;;;;12.50;8.90;;;;;;;20.11;100.00;99054.50;5091203;28;20028;-73
2022/09/27 06:47:45;;;;;;;10.55;9.35;;;;;;;20.09;100.00;99071.06;5090397;28;20039;-74
2022/09/27 06:50:12;;;;;;;14.38;8.95;;;;;;;19.79;100.00;98995.22;5107181;28;20032;-73
2022/09/27 06:52:37;;;;;;;10.90;9.75;;;;;;;19.88;100.00;99009.97;5091341;28;20051;-72
2022/09/27 06:55:04;;;;;;;14.25;9.43;;;;;;;20.08;100.00;99036.72;5090634;28;20098;-72
2022/09/27 07:00:25;;;;;;;10.90;9.80;;;;;;;20.09;100.00;99002.19;5091334;28;20105;-73
2022/09/27 07:02:52;;;;;;;12.90;11.10;;;;;;;20.13;100.00;99049.22;5090236;28;20031;-72
2022/09/27 07:05:19;;;;;;;15.63;11.15;;;;;;;20.22;100.00;99039.00;5091125;28;20119;-74
2022/09/27 07:07:49;;;;;;;13.55;10.20;;;;;;;20.28;100.00;99029.94;5090903;28;20024;-73
2022/09/27 07:10:16;;;;;;;10.70;9.52;;;;;;;20.17;100.00;98963.66;5091001;28;20109;-73
2022/09/27 07:12:46;;;;;;;12.13;9.65;;;;;;;20.88;100.00;99029.13;5089977;28;20028;-73
2022/09/27 07:15:11;;;;;;;12.48;9.02;;;;;;;20.97;100.00;99029.16;5089735;28;20122;-73
2022/09/27 07:17:37;;;;;;;10.48;8.98;;;;;;;21.25;100.00;99036.19;5091131;28;20541;-75
2022/09/27 07:20:03;;;;;;;10.68;8.25;;;;;;;21.33;100.00;99027.78;5091418;28;20032;-73
2022/09/27 07:22:29;;;;;;;10.48;8.50;;;;;;;21.14;100.00;99038.88;5090361;28;20123;-75
2022/09/27 07:24:55;;;;;;;13.10;8.90;;;;;;;20.85;100.00;98988.88;5090693;28;20044;-73
2022/09/27 07:27:21;;;;;;;9.73;7.82;;;;;;;20.77;100.00;98969.78;5089966;28;20110;-76
2022/09/27 07:29:46;;;;;;;9.70;8.48;;;;;;;21.06;100.00;98986.19;5090960;28;20475;-74
2022/09/27 07:32:12;;;;;;;10.90;8.43;;;;;;;21.45;100.00;99013.78;5090895;28;20031;-73
2022/09/27 07:34:37;;;;;;;11.85;8.30;;;;;;;20.95;100.00;98997.47;5089446;28;20115;-73
2022/09/27 07:37:04;;;;;;;13.20;8.02;;;;;;;21.49;100.00;99052.16;5090655;28;20115;-73
2022/09/27 07:39:32;;;;;;;12.13;8.00;;;;;;;21.60;100.00;99051.22;5089249;28;20023;-75
2022/09/27 07:41:58;;;;;;;9.00;8.10;;;;;;;21.34;100.00;99016.47;5090648;28;20025;-80
2022/09/27 07:44:24;;;;;;;10.95;7.75;;;;;;;21.17;100.00;98976.59;5090750;28;20134;-73
2022/09/27 07:46:49;;;;;;;10.68;8.30;;;;;;;21.29;100.00;98983.25;5090706;28;20024;-73
2022/09/27 07:49:14;;;;;;;10.65;8.23;;;;;;;21.56;100.00;99027.41;5090836;28;20332;-73
2022/09/27 07:51:40;;;;;;;8.55;7.75;;;;;;;21.33;100.00;98976.06;5090358;28;20028;-73
2022/09/27 07:54:05;;;;;;;9.00;7.70;;;;;;;21.88;100.00;99037.50;5090421;28;20024;-73
2022/09/27 07:56:31;;;;;;;12.95;8.27;;;;;;;21.80;100.00;99003.69;5090663;28;20055;-73
2022/09/27 07:58:58;;;;;;;8.63;7.75;;;;;;;21.84;100.00;98988.72;5090562;28;20042;-74
2022/09/27 08:01:23;;;;;;;10.68;8.65;;;;;;;21.83;100.00;98992.28;5090464;28;20028;-75
2022/09/27 08:03:49;;;;;;;12.75;9.18;;;;;;;22.14;100.00;99029.97;5090751;28;20489;-74
2022/09/27 08:06:14;;;;;;;16.83;8.98;;;;;;;21.63;100.00;98977.69;5091338;28;20027;-74
2022/09/27 08:08:40;;;;;;;12.15;9.57;;;;;;;22.06;100.00;98983.25;5094474;28;20074;-74
2022/09/27 08:11:14;;;;;;;12.80;10.45;;;;;;;22.24;100.00;99002.28;5093388;28;20032;-73
2022/09/27 08:13:44;;;;;;;11.63;10.27;;;;;;;22.27;100.00;99010.59;5093232;28;20097;-73
2022/09/27 08:16:10;;;;;;;14.77;12.20;;;;;;;22.03;100.00;98979.16;5094961;28;20051;-73
2022/09/27 08:18:36;;;;;;;16.45;11.77;;;;;;;22.25;100.00;98993.56;5094418;28;20482;-73
2022/09/27 08:21:02;;;;;;;16.42;10.98;;;;;;;22.12;100.00;98972.34;5093394;28;20035;-78
2022/09/27 08:23:28;;;;;;;12.93;9.98;;;;;;;22.08;100.00;98970.97;5093906;28;20441;-73
2022/09/27 08:25:56;;;;;;;12.00;8.77;;;;;;;22.81;100.00;98983.97;5093776;28;20116;-73
2022/09/27 08:28:21;;;;;;;9.70;7.28;;;;;;;22.51;100.00;98994.56;5092641;28;20035;-73
2022/09/27 08:30:48;;;;;;;9.63;7.72;;;;;;;21.77;100.00;98903.03;5094516;28;20107;-73
2022/09/27 08:33:13;;;;;;;8.60;7.53;;;;;;;22.59;100.00;98980.91;5094320;28;20097;-73
2022/09/27 08:35:39;;;;;;;9.07;7.85;;;;;;;22.80;100.00;99012.63;5109624;28;20032;-73
2022/09/27 08:38:04;;;;;;;10.73;8.27;;;;;;;22.54;100.00;98970.94;5093985;28;20024;-73
2022/09/27 08:40:42;;;;;;;11.63;8.27;;;;;;;22.63;100.00;98997.81;5093882;28;20448;-72
2022/09/27 08:43:18;;;;;;;10.30;7.90;;;;;;;23.82;100.00;98988.84;5093955;28;20486;-71
2022/09/27 08:46:00;;;;;;;11.52;7.47;;;;;;;23.21;100.00;98991.38;5092406;28;20039;-73
2022/09/27 08:48:27;;;;;;;8.10;7.15;;;;;;;23.15;100.00;98946.09;5093214;28;20020;-73
2022/09/27 08:50:54;;;;;;;9.73;7.40;;;;;;;23.06;100.00;98943.53;5093691;28;20035;-73
2022/09/27 08:53:26;;;;;;;8.90;6.93;;;;;;;23.20;100.00;98946.44;5093419;28;20032;-72
2022/09/27 08:55:55;;;;;;;11.35;7.80;;;;;;;23.04;100.00;98984.34;5092724;28;20116;-73
2022/09/27 08:58:28;;;;;;;13.30;7.90;;;;;;;22.38;100.00;98896.44;5091646;28;20028;-72
2022/09/27 09:01:03;;;;;;;11.68;7.40;;;;;;;23.00;100.00;98957.09;5092130;28;20055;-73
2022/09/27 09:03:32;;;;;;;10.30;6.75;;;;;;;23.21;100.00;98983.59;5092100;28;20063;-73
2022/09/27 09:06:19;;;;;;;13.50;7.55;;;;;;;22.86;100.00;98916.94;5090744;28;20082;-71
2022/09/27 09:09:04;;;;;;;10.18;7.70;;;;;;;23.22;100.00;98949.72;4732503;28;10000418;-75
2022/09/27 09:14:31;;;;;;;13.40;6.82;;;;;;;23.38;100.00;98956.03;5090504;28;20063;-74
2022/09/27 09:17:02;;;;;;;11.55;7.10;;;;;;;23.34;100.00;98955.53;5107044;28;20096;-73
2022/09/27 09:19:54;;;;;;;13.45;7.40;;;;;;;23.35;100.00;98956.34;5091268;28;20032;-73
2022/09/27 09:22:44;;;;;;;10.48;7.22;;;;;;;22.98;100.00;98899.38;5090569;28;20562;-73
2022/09/27 09:25:33;;;;;;;9.52;7.45;;;;;;;23.13;100.00;98944.59;5063304;28;20136;-72
2022/09/27 09:28:24;;;;;;;10.38;7.65;;;;;;;23.03;100.00;98936.06;5050448;28;20032;-73
2022/09/27 09:31:04;;;;;;;9.48;7.13;;;;;;;23.00;100.00;98937.16;5051013;28;20104;-71
2022/09/27 09:33:34;;;;;;;12.40;7.65;;;;;;;23.23;100.00;98932.38;5074853;28;20043;-74
2022/09/27 09:36:31;;;;;;;11.73;8.00;;;;;;;23.28;100.00;98922.34;5068284;28;20058;-71
2022/09/27 09:39:14;;;;;;;14.35;7.18;;;;;;;23.35;100.00;98915.66;5043340;28;20565;-72
2022/09/27 09:42:09;;;;;;;10.55;6.82;;;;;;;23.41;100.00;98881.31;5069081;28;20024;-71
2022/09/27 09:44:44;;;;;;;13.45;7.00;;;;;;;23.88;100.00;98894.78;5068767;28;20090;-71
2022/09/27 09:47:28;;;;;;;12.40;7.30;;;;;;;23.64;100.00;98908.41;5078907;28;20036;-70
2022/09/27 09:50:17;;;;;;;11.82;7.55;;;;;;;23.60;100.00;98904.50;5070616;28;20066;-70
2022/09/27 09:52:50;;;;;;;12.52;6.97;;;;;;;23.53;100.00;98853.34;5066603;28;20040;-71
2022/09/27 09:55:23;;;;;;;9.25;6.82;;;;;;;24.10;100.00;98894.28;5050626;28;20055;-72
2022/09/27 09:58:04;;;;;;;9.30;6.30;;;;;;;24.09;100.00;98885.66;5050676;28;20024;-72
2022/09/27 10:00:30;;;;;;;12.25;6.40;;;;;;;23.82;100.00;98880.63;5050646;28;20056;-72
2022/09/27 10:02:58;;;;;;;12.38;7.07;;;;;;;23.79;100.00;98883.50;5051934;28;20049;-73
2022/09/27 10:05:26;;;;;;;12.75;6.70;;;;;;;24.02;100.00;98891.59;5050491;28;20037;-72
2022/09/27 10:07:55;;;;;;;11.23;6.43;;;;;;;23.94;100.00;98850.00;5051149;28;20051;-72
2022/09/27 10:10:21;;;;;;;10.05;5.22;;;;;;;24.01;100.00;98838.03;5066420;28;20116;-72
2022/09/27 10:12:47;;;;;;;9.13;5.75;;;;;;;24.18;100.00;98833.75;5051528;28;20039;-73
2022/09/27 10:15:16;;;;;;;9.40;4.53;;;;;;;24.90;100.00;98839.94;5051144;28;20103;-73
2022/09/27 10:17:46;;;;;;;16.80;4.25;;;;;;;25.44;100.00;98855.91;5051260;28;20029;-72
2022/09/27 10:20:23;;;;;;;14.38;5.22;;;;;;;25.61;100.00;98758.59;5050242;28;20396;-74
2022/09/27 10:22:54;;;;;;;13.43;3.85;;;;;;;26.13;100.00;98861.31;5051414;28;20029;-72
2022/09/27 10:25:20;;;;;;;9.20;3.40;;;;;;;26.71;100.00;98847.84;5051436;28;20141;-73
2022/09/27 10:27:48;;;;;;;6.35;3.50;;;;;;;25.98;100.00;98800.44;5066970;28;20087;-74
2022/09/27 10:30:34;;;;;;;8.20;3.92;;;;;;;26.51;100.00;98838.81;5050460;28;20037;-72
2022/09/27 10:33:15;;;;;;;7.82;3.35;;;;;;;27.50;100.00;98815.25;5051196;28;20059;-72
2022/09/27 10:35:43;;;;;;;6.18;2.97;;;;;;;27.91;100.00;98757.13;5051225;28;20108;-74
2022/09/27 10:38:19;;;;;;;7.72;3.00;;;;;;;28.28;100.00;98809.28;5051360;28;20125;-72
2022/09/27 10:40:47;;;;;;;5.78;3.15;;;;;;;27.31;100.00;98753.88;5066507;28;20033;-73
2022/09/27 10:43:26;;;;;;;6.10;3.10;;;;;;;28.29;100.00;98810.09;5051182;28;20045;-72
2022/09/27 10:46:25;;;;;;;9.75;3.28;;;;;;;28.09;100.00;98795.97;5051157;28;20484;-72
2022/09/27 10:49:18;;;;;;;8.93;3.35;;;;;;;28.03;100.00;98787.06;5066484;28;20079;-72
2022/09/27 10:51:48;;;;;;;9.80;3.00;;;;;;;28.35;100.00;98745.75;5043445;28;20400;-73
2022/09/27 10:54:23;;;;;;;8.75;3.03;;;;;;;28.24;100.00;98776.66;5051215;28;20021;-73
2022/09/27 10:57:41;;;;;;;6.57;3.05;;;;;;;28.38;100.00;98798.53;5066480;28;20028;-73
2022/09/27 11:00:31;;;;;;;7.28;3.08;;;;;;;29.13;97.92;98783.16;5046805;28;20040;-76
2022/09/27 11:03:01;;;;;;;7.95;3.33;;;;;;;28.66;94.98;98773.28;5050923;28;20044;-72
2022/09/27 11:05:37;;;;;;;7.90;3.35;;;;;;;28.60;100.00;98789.75;5051159;28;20440;-72
2022/09/27 11:08:37;;;;;;;8.95;3.03;;;;;;;28.39;100.00;98757.47;5050803;28;20170;-73
2022/09/27 11:11:12;;;;;;;7.63;2.63;;;;;;;28.38;100.00;98782.03;5049680;28;20741;-73
2022/09/27 11:13:38;;;;;;;7.05;3.03;;;;;;;27.78;100.00;98716.97;5066392;28;20107;-72
2022/09/27 11:16:15;;;;;;;7.85;3.60;;;;;;;28.02;100.00;98782.03;5050802;28;20033;-74
2022/09/27 11:19:14;;;;;;;8.00;3.40;;;;;;;27.69;100.00;98783.38;5050699;28;20110;-73
2022/09/27 11:21:49;;;;;;;8.50;3.67;;;;;;;27.59;100.00;98782.84;5050631;28;20123;-72
2022/09/27 11:24:46;;;;;;;8.50;3.60;;;;;;;27.67;100.00;98778.34;5065932;28;20051;-73
2022/09/27 11:27:30;;;;;;;10.15;3.80;;;;;;;28.42;100.00;98723.13;5050926;28;20032;-70
2022/09/27 11:30:12;;;;;;;3.72;2.65;;;;;;;28.43;99.21;98727.34;5050621;28;20116;-73
2022/09/27 11:32:50;;;;;;;6.43;2.28;;;;;;;27.52;100.00;98780.13;5050444;28;20032;-73
2022/09/27 11:35:46;;;;;;;5.85;2.60;;;;;;;28.51;100.00;98763.84;5050727;28;20128;-73
2022/09/27 11:38:23;;;;;;;7.45;2.47;;;;;;;28.01;100.00;98772.53;5066024;28;20388;-73
2022/09/27 11:41:10;;;;;;;6.07;2.80;;;;;;;27.66;100.00;98718.41;5052404;28;20018;-75
2022/09/27 11:43:41;;;;;;;4.20;2.35;;;;;;;27.91;100.00;98759.72;5054546;28;20037;-74
2022/09/27 11:46:17;;;;;;;5.00;2.78;;;;;;;27.53;100.00;98760.88;5070616;28;20040;-73